Terminal Aerodrome Forecast
Issued by NWS Charleston, WV

Current Version | Previous Version | Text Only | Print | Product List | Glossary Off
Versions: 1 2 3 4 5 6 7 8 9 10 11 12 13 14 15 16 17 18 19 20 21 22 23 24 25 26 27 28 29

826
FTUS41 KRLX 180213 AAB
TAFBKW
TAF AMD
KBKW 180213Z 1802/1824 01009KT P6SM SKC
     FM180300 01007KT P6SM BKN040
     FM180800 VRB04KT P6SM BKN020
     FM181700 24009G16KT P6SM SCT035
     FM182000 22012G20KT P6SM SKC=

USA.gov is the U.S. government's official web portal to all federal, state and local government web resources and services.